Time;durP1;ratioP1;P1;durP2;ratioP2;P2;SDS_P1;SDS_P2;PMS_P1;PMS_P2;Temp;Humidity;BMP_temperature;BMP_pressure;BME280_temperature;BME280_humidity;BME280_pressure;Samples;Min_cycle;Max_cycle;Signal;HPM_P1;HPM_P2
2021/03/06 00:00:37;;;;;;;29.50;16.08;;;13.40;58.40;;;;;;5075201;28;20043;-48
2021/03/06 00:03:04;;;;;;;31.25;17.38;;;13.50;58.40;;;;;;5058311;28;20037;-47
2021/03/06 00:05:30;;;;;;;30.20;17.40;;;13.40;58.50;;;;;;5057121;28;20132;-47
2021/03/06 00:07:56;;;;;;;30.55;15.50;;;13.50;58.40;;;;;;5066153;28;20127;-47
2021/03/06 00:11:14;;;;;;;28.35;16.45;;;13.40;58.30;;;;;;5063691;28;20502;-47
2021/03/06 00:13:40;;;;;;;30.05;15.95;;;13.50;58.60;;;;;;5015097;28;20456;-49
2021/03/06 00:16:06;;;;;;;30.83;16.02;;;13.50;58.40;;;;;;5057728;28;20051;-47
2021/03/06 00:18:31;;;;;;;26.38;15.35;;;13.60;58.20;;;;;;5061658;28;20094;-47
2021/03/06 00:21:06;;;;;;;34.13;16.60;;;13.60;58.20;;;;;;5053940;28;20033;-47
2021/03/06 00:23:32;;;;;;;32.25;16.48;;;13.60;58.20;;;;;;5063173;28;20033;-47
2021/03/06 00:25:57;;;;;;;34.53;18.05;;;13.60;58.50;;;;;;5060913;28;20466;-48
2021/03/06 00:28:23;;;;;;;31.67;18.05;;;13.60;57.90;;;;;;5066966;28;21008;-47
2021/03/06 00:30:49;;;;;;;37.78;18.70;;;13.40;58.10;;;;;;5057042;28;20048;-47
2021/03/06 00:33:14;;;;;;;32.28;17.85;;;13.50;58.20;;;;;;5063721;28;20470;-51
2021/03/06 00:35:40;;;;;;;35.15;19.73;;;13.60;58.20;;;;;;5060490;28;20048;-50
2021/03/06 00:38:06;;;;;;;35.90;19.70;;;13.60;58.00;;;;;;5062392;28;20052;-50
2021/03/06 00:40:31;;;;;;;30.17;19.02;;;13.50;57.90;;;;;;5066072;28;20090;-48
2021/03/06 00:42:57;;;;;;;31.13;17.98;;;13.50;58.00;;;;;;5054582;28;20045;-48
2021/03/06 00:45:23;;;;;;;33.92;19.50;;;13.60;58.00;;;;;;5055459;28;20051;-47
2021/03/06 00:47:48;;;;;;;36.38;21.10;;;13.60;58.10;;;;;;5058512;28;20052;-50
2021/03/06 00:50:22;;;;;;;30.73;21.30;;;13.50;58.00;;;;;;5063494;28;20047;-48
2021/03/06 00:52:47;;;;;;;35.28;22.33;;;13.50;58.50;;;;;;5058835;28;20174;-48
2021/03/06 00:55:13;;;;;;;40.35;24.52;;;13.60;57.90;;;;;;5058014;28;20136;-48
2021/03/06 00:57:39;;;;;;;37.78;23.75;;;13.50;58.00;;;;;;5058171;28;20044;-52
2021/03/06 01:00:05;;;;;;;41.10;26.33;;;13.60;58.00;;;;;;5063644;28;20037;-49
2021/03/06 01:02:31;;;;;;;48.70;29.20;;;13.60;57.80;;;;;;5058128;28;20056;-48
2021/03/06 01:04:56;;;;;;;48.50;32.15;;;13.50;57.80;;;;;;5060725;28;20056;-49
2021/03/06 01:07:22;;;;;;;56.30;37.70;;;13.50;58.20;;;;;;5076250;28;22478;-51
2021/03/06 01:09:48;;;;;;;54.83;37.53;;;13.40;58.40;;;;;;5060840;28;20044;-48
2021/03/06 01:12:13;;;;;;;64.65;41.67;;;13.40;58.50;;;;;;5061930;28;20437;-49
2021/03/06 01:14:39;;;;;;;56.53;39.10;;;13.40;58.40;;;;;;5070416;28;20540;-49
2021/03/06 01:20:27;;;;;;;53.30;38.00;;;13.40;58.80;;;;;;5014498;28;20132;-51
2021/03/06 01:22:53;;;;;;;61.15;37.63;;;13.30;58.40;;;;;;5050762;28;20513;-53
2021/03/06 01:32:21;;;;;;;50.17;34.75;;;13.20;59.70;;;;;;4995563;28;20131;-49
2021/03/06 01:34:47;;;;;;;56.60;36.58;;;13.10;59.90;;;;;;5054837;28;20140;-50
2021/03/06 01:37:12;;;;;;;53.40;35.78;;;13.10;60.20;;;;;;5060853;28;20033;-52
2021/03/06 01:39:38;;;;;;;57.53;35.25;;;13.10;60.20;;;;;;5055332;28;20049;-48
2021/03/06 01:42:05;;;;;;;48.38;34.55;;;13.00;60.30;;;;;;5062263;28;20111;-48
2021/03/06 01:44:31;;;;;;;53.55;37.65;;;13.10;60.40;;;;;;5056396;28;20437;-50
2021/03/06 01:46:57;;;;;;;50.05;35.22;;;13.00;60.50;;;;;;5059859;28;20032;-51
2021/03/06 01:49:23;;;;;;;55.53;38.10;;;12.90;60.80;;;;;;5053752;28;20048;-50
2021/03/06 01:51:49;;;;;;;50.25;35.35;;;12.90;61.00;;;;;;5062902;28;20036;-53
2021/03/06 01:54:15;;;;;;;55.15;38.88;;;12.80;61.30;;;;;;5054875;28;20048;-49
2021/03/06 01:56:41;;;;;;;57.47;38.78;;;12.80;61.40;;;;;;5062851;28;20036;-53
2021/03/06 01:59:07;;;;;;;52.72;36.35;;;12.70;61.70;;;;;;5062008;28;20051;-49
2021/03/06 02:01:32;;;;;;;54.47;37.10;;;12.70;61.60;;;;;;5061676;28;20410;-49
2021/03/06 02:04:00;;;;;;;52.83;38.25;;;12.90;61.60;;;;;;5057297;28;20103;-54
2021/03/06 02:06:26;;;;;;;56.95;37.45;;;12.80;61.90;;;;;;5054488;28;20550;-51
2021/03/06 02:12:40;;;;;;;54.85;40.85;;;12.80;62.50;;;;;;5018661;28;20233;-49
2021/03/06 02:19:04;;;;;;;64.03;45.83;;;12.70;63.00;;;;;;5014219;28;20075;-46
2021/03/06 02:21:45;;;;;;;63.42;45.20;;;12.60;63.60;;;;;;5035046;28;20086;-46
2021/03/06 02:24:29;;;;;;;68.20;47.28;;;12.60;63.50;;;;;;5064606;28;20067;-48
2021/03/06 02:27:08;;;;;;;68.78;47.30;;;12.60;63.90;;;;;;5058723;28;20044;-48
2021/03/06 02:29:42;;;;;;;64.47;43.88;;;12.60;63.60;;;;;;5060130;28;20041;-47
2021/03/06 02:32:15;;;;;;;67.20;49.33;;;12.70;63.30;;;;;;5052611;28;20037;-49
2021/03/06 02:34:48;;;;;;;68.45;49.85;;;12.40;64.40;;;;;;5059268;28;20114;-48
2021/03/06 02:37:18;;;;;;;69.65;49.72;;;12.40;64.40;;;;;;5052552;28;20064;-47
2021/03/06 02:39:47;;;;;;;76.10;52.70;;;12.50;63.80;;;;;;5073087;28;20053;-53
2021/03/06 02:42:17;;;;;;;72.82;50.33;;;12.60;63.60;;;;;;5057718;28;20131;-50
2021/03/06 02:44:43;;;;;;;77.20;52.60;;;12.60;63.80;;;;;;5063335;28;20032;-50
2021/03/06 02:53:52;;;;;;;77.13;53.63;;;12.40;64.60;;;;;;5021652;28;20095;-48
2021/03/06 02:56:18;;;;;;;73.68;51.78;;;12.30;65.20;;;;;;5060630;28;20049;-51
2021/03/06 02:58:55;;;;;;;73.95;52.25;;;12.30;65.00;;;;;;5060695;28;20044;-49
2021/03/06 03:01:44;;;;;;;72.78;50.50;;;12.20;65.60;;;;;;5053772;28;20049;-49
2021/03/06 03:04:18;;;;;;;73.50;51.35;;;12.20;67.30;;;;;;5053976;28;20047;-56
2021/03/06 03:06:48;;;;;;;71.20;50.70;;;12.20;66.60;;;;;;5061134;28;20037;-52
2021/03/06 03:09:24;;;;;;;75.18;51.67;;;12.20;67.60;;;;;;5061322;28;20058;-52
2021/03/06 03:11:58;;;;;;;71.90;49.92;;;12.20;68.30;;;;;;5060261;28;20489;-51
2021/03/06 03:14:38;;;;;;;76.20;51.25;;;12.20;67.90;;;;;;5056153;28;20045;-49
2021/03/06 03:17:28;;;;;;;76.28;51.38;;;12.30;69.00;;;;;;5061070;28;20036;-51
2021/03/06 03:20:08;;;;;;;73.55;50.63;;;12.10;70.80;;;;;;5033300;28;20532;-51
2021/03/06 03:22:41;;;;;;;67.10;47.88;;;12.00;71.40;;;;;;5053547;28;20040;-53
2021/03/06 03:25:10;;;;;;;64.55;47.95;;;12.00;70.50;;;;;;5064476;28;20037;-52
2021/03/06 03:27:38;;;;;;;68.30;47.13;;;12.00;70.60;;;;;;5055828;28;20036;-50
2021/03/06 03:30:10;;;;;;;68.03;47.60;;;11.90;71.20;;;;;;5059003;28;20032;-52
2021/03/06 03:32:36;;;;;;;67.53;49.28;;;11.70;72.50;;;;;;5064269;28;20071;-48
2021/03/06 03:35:04;;;;;;;70.40;48.78;;;11.60;73.70;;;;;;5059390;28;20415;-51
2021/03/06 03:37:31;;;;;;;69.22;48.58;;;11.70;75.40;;;;;;5069534;28;20378;-50
2021/03/06 03:39:57;;;;;;;61.42;44.28;;;11.60;74.40;;;;;;5052615;28;20513;-49
2021/03/06 03:42:24;;;;;;;63.97;44.38;;;11.60;74.50;;;;;;5071605;28;20041;-52
2021/03/06 03:44:50;;;;;;;66.05;44.15;;;11.70;73.70;;;;;;5059721;28;20480;-51
2021/03/06 03:47:19;;;;;;;59.63;44.72;;;11.70;73.90;;;;;;5061663;28;20402;-48
2021/03/06 03:49:45;;;;;;;60.88;42.38;;;11.60;74.00;;;;;;5054434;28;20119;-54
2021/03/06 03:52:11;;;;;;;65.90;45.72;;;11.50;74.90;;;;;;5060977;28;20119;-53
2021/03/06 03:54:39;;;;;;;57.03;41.00;;;11.60;76.50;;;;;;5060428;28;20052;-48
2021/03/06 03:57:07;;;;;;;49.95;36.28;;;11.40;77.80;;;;;;5054881;28;20045;-48
2021/03/06 03:59:32;;;;;;;55.42;38.13;;;11.20;77.70;;;;;;5050289;28;20107;-49
2021/03/06 04:01:58;;;;;;;46.25;33.58;;;11.30;78.80;;;;;;5061409;28;20045;-52
2021/03/06 04:04:26;;;;;;;45.85;34.83;;;11.30;77.60;;;;;;5055011;28;20403;-52
2021/03/06 04:06:57;;;;;;;46.63;34.35;;;11.50;76.10;;;;;;5059519;28;20032;-50
2021/03/06 04:09:23;;;;;;;43.40;31.92;;;11.40;76.80;;;;;;5051104;28;20044;-49
2021/03/06 04:11:49;;;;;;;47.95;31.67;;;11.40;76.30;;;;;;5052692;28;20128;-51
2021/03/06 04:14:14;;;;;;;40.53;29.83;;;11.30;76.60;;;;;;5065458;28;20573;-51
2021/03/06 04:16:40;;;;;;;45.17;31.50;;;11.30;76.40;;;;;;5053424;28;20375;-56
2021/03/06 04:19:06;;;;;;;39.17;30.13;;;11.40;78.10;;;;;;5058689;28;20051;-49
2021/03/06 04:21:32;;;;;;;40.30;28.45;;;11.20;77.70;;;;;;5054731;28;20493;-53
2021/03/06 04:23:57;;;;;;;38.78;28.35;;;11.10;78.10;;;;;;5060634;28;20082;-49
2021/03/06 04:26:24;;;;;;;35.88;26.50;;;10.80;80.70;;;;;;5059183;28;20094;-52
2021/03/06 04:28:50;;;;;;;35.97;25.48;;;10.80;83.20;;;;;;5060430;28;20565;-48
2021/03/06 04:31:16;;;;;;;35.80;26.08;;;10.70;83.90;;;;;;5057953;28;20036;-48
2021/03/06 04:33:41;;;;;;;35.22;24.67;;;10.70;83.20;;;;;;5054448;28;20111;-47
2021/03/06 04:36:07;;;;;;;31.67;23.42;;;10.80;83.00;;;;;;5052828;28;20044;-47
2021/03/06 04:39:04;;;;;;;31.08;21.83;;;10.80;84.20;;;;;;5056858;28;20499;-48
2021/03/06 04:41:30;;;;;;;31.20;21.00;;;10.80;82.60;;;;;;5014451;28;20056;-51
2021/03/06 04:43:56;;;;;;;28.63;20.25;;;10.70;83.00;;;;;;5058754;28;20036;-47
2021/03/06 04:46:22;;;;;;;26.43;19.97;;;10.80;82.60;;;;;;5051085;28;20049;-50
2021/03/06 04:48:54;;;;;;;24.35;18.67;;;10.80;82.20;;;;;;5058968;28;20052;-46
2021/03/06 04:51:20;;;;;;;22.75;17.70;;;10.90;81.80;;;;;;5053934;28;20447;-48
2021/03/06 04:53:46;;;;;;;21.30;15.73;;;10.80;93.30;;;;;;5063164;28;20052;-47
2021/03/06 04:56:12;;;;;;;14.88;11.30;;;10.70;96.10;;;;;;5051595;28;20483;-51
2021/03/06 04:58:37;;;;;;;14.07;10.25;;;10.70;95.10;;;;;;5080312;28;20404;-50
2021/03/06 05:01:03;;;;;;;13.60;9.48;;;10.60;94.10;;;;;;5057711;28;20060;-48
2021/03/06 05:03:28;;;;;;;9.57;7.93;;;10.80;83.20;;;;;;5061257;28;20406;-51
2021/03/06 05:05:54;;;;;;;9.48;7.10;;;10.80;80.60;;;;;;5061556;28;20076;-48
2021/03/06 05:08:20;;;;;;;9.82;7.35;;;10.70;79.40;;;;;;5073765;28;20064;-48
2021/03/06 05:10:46;;;;;;;9.70;7.85;;;10.50;79.80;;;;;;5057860;28;20056;-51
2021/03/06 05:13:11;;;;;;;8.50;6.70;;;10.60;79.40;;;;;;5063310;28;20494;-50
2021/03/06 05:15:37;;;;;;;8.50;6.95;;;10.60;79.60;;;;;;5062793;28;20082;-49
2021/03/06 05:18:03;;;;;;;8.30;6.28;;;10.50;78.50;;;;;;5057733;28;20094;-48
2021/03/06 05:20:28;;;;;;;8.35;5.57;;;10.60;77.70;;;;;;5062674;28;20102;-53
2021/03/06 05:22:54;;;;;;;8.75;4.57;;;10.50;78.00;;;;;;5061686;28;20481;-48
2021/03/06 05:25:19;;;;;;;6.70;4.67;;;10.50;77.40;;;;;;5061481;28;20112;-49
2021/03/06 05:27:45;;;;;;;12.98;5.07;;;10.30;77.40;;;;;;5054845;28;20040;-50
2021/03/06 05:30:11;;;;;;;7.10;4.40;;;10.50;77.30;;;;;;5062152;28;20410;-51
2021/03/06 05:33:23;;;;;;;7.13;4.43;;;10.30;77.30;;;;;;5076171;28;20056;-48
2021/03/06 05:35:48;;;;;;;6.03;3.40;;;10.30;76.90;;;;;;5013342;28;20024;-48
2021/03/06 05:38:14;;;;;;;5.40;4.33;;;10.10;77.00;;;;;;5051789;28;20041;-49
2021/03/06 05:40:42;;;;;;;4.93;3.53;;;10.40;77.40;;;;;;5061136;28;20440;-52
2021/03/06 05:43:09;;;;;;;6.50;4.17;;;10.30;76.70;;;;;;5053411;28;20445;-48
2021/03/06 05:45:37;;;;;;;5.70;3.83;;;10.30;77.50;;;;;;5071654;28;20151;-49
2021/03/06 05:48:04;;;;;;;5.57;4.50;;;10.20;77.30;;;;;;5056111;28;20049;-50
2021/03/06 05:50:31;;;;;;;4.57;4.17;;;10.30;77.20;;;;;;5074606;28;20072;-50
2021/03/06 05:53:29;;;;;;;9.67;4.60;;;10.20;76.20;;;;;;5060341;28;20397;-53
2021/03/06 05:55:59;;;;;;;5.13;4.33;;;10.00;92.10;;;;;;5037326;28;20071;-49
2021/03/06 05:58:25;;;;;;;5.67;4.00;;;9.80;92.80;;;;;;5054251;28;20409;-50
2021/03/06 06:00:52;;;;;;;5.67;4.20;;;9.80;90.90;;;;;;5055780;28;20028;-48
2021/03/06 06:03:20;;;;;;;6.33;4.10;;;9.90;82.70;;;;;;5056163;28;20029;-51
2021/03/06 06:06:30;;;;;;;6.27;3.83;;;9.90;75.60;;;;;;5058097;28;20490;-51
2021/03/06 06:09:02;;;;;;;4.07;3.60;;;10.20;76.30;;;;;;5032749;28;20049;-53
2021/03/06 06:11:28;;;;;;;6.53;3.70;;;10.10;75.20;;;;;;5056725;28;20064;-49
2021/03/06 06:13:58;;;;;;;7.73;4.03;;;10.20;75.60;;;;;;5063959;28;20863;-48
2021/03/06 06:16:27;;;;;;;8.87;4.00;;;10.20;75.20;;;;;;5056377;28;20536;-49
2021/03/06 06:18:55;;;;;;;8.53;4.13;;;10.10;74.60;;;;;;5059134;28;20036;-51
2021/03/06 06:21:43;;;;;;;8.13;4.90;;;9.90;74.40;;;;;;5071036;28;20037;-52
2021/03/06 06:24:22;;;;;;;5.53;3.00;;;10.00;74.20;;;;;;5055358;28;20045;-47
2021/03/06 06:27:01;;;;;;;6.23;3.47;;;10.00;74.20;;;;;;5047542;28;20028;-49
2021/03/06 06:29:40;;;;;;;5.73;3.60;;;10.00;74.90;;;;;;5061723;28;20040;-53
2021/03/06 06:32:08;;;;;;;10.50;4.20;;;10.00;73.80;;;;;;5054826;28;20475;-49
2021/03/06 06:34:36;;;;;;;4.73;3.27;;;9.90;74.80;;;;;;5059015;28;20430;-52
2021/03/06 06:37:15;;;;;;;8.23;2.90;;;10.00;74.50;;;;;;5054690;28;20447;-50
2021/03/06 06:39:43;;;;;;;5.17;3.00;;;10.10;74.50;;;;;;5057389;28;20033;-52
2021/03/06 06:42:09;;;;;;;5.70;3.10;;;10.00;73.60;;;;;;5049017;28;20037;-51
2021/03/06 06:44:36;;;;;;;5.70;3.33;;;9.90;73.20;;;;;;5057998;28;20047;-50
2021/03/06 06:47:18;;;;;;;4.13;2.97;;;9.90;73.40;;;;;;5053330;28;20131;-50
2021/03/06 06:49:48;;;;;;;7.33;3.17;;;10.00;73.80;;;;;;5056508;28;20049;-51
2021/03/06 06:52:16;;;;;;;3.47;3.07;;;9.90;73.80;;;;;;5056536;28;20045;-50
2021/03/06 06:54:51;;;;;;;4.23;2.63;;;9.90;73.40;;;;;;5059872;28;20123;-52
2021/03/06 06:57:17;;;;;;;;;;;10.00;73.00;;;;;;5067079;28;20033;-50
2021/03/06 07:00:12;;;;;;;3.43;2.47;;;9.80;72.40;;;;;;5057289;28;20384;-49
2021/03/06 07:02:51;;;;;;;6.88;2.60;;;9.80;73.00;;;;;;5035544;28;20074;-47
2021/03/06 07:05:26;;;;;;;5.00;2.80;;;9.80;73.20;;;;;;5035638;28;20070;-47
2021/03/06 07:07:51;;;;;;;6.50;2.67;;;9.80;73.60;;;;;;5054409;28;20044;-47
2021/03/06 07:10:17;;;;;;;5.37;3.23;;;9.80;73.70;;;;;;5056677;28;20036;-47
2021/03/06 07:12:46;;;;;;;4.90;2.73;;;9.70;73.90;;;;;;5055414;28;20521;-47
2021/03/06 07:15:19;;;;;;;5.87;2.60;;;9.60;73.50;;;;;;5061396;28;20032;-55
2021/03/06 07:17:50;;;;;;;4.27;2.80;;;9.60;74.00;;;;;;5051050;28;20033;-48
2021/03/06 07:20:22;;;;;;;5.87;3.13;;;9.70;74.20;;;;;;5063948;28;20082;-48
2021/03/06 07:22:53;;;;;;;6.07;2.80;;;9.70;74.40;;;;;;5057226;28;20430;-48
2021/03/06 07:25:19;;;;;;;6.43;2.90;;;9.60;73.90;;;;;;5061541;28;20029;-51
2021/03/06 07:27:45;;;;;;;10.67;3.37;;;9.60;73.20;;;;;;5048043;28;20110;-50
2021/03/06 07:30:14;;;;;;;7.47;3.00;;;9.70;75.20;;;;;;5058689;28;20115;-51
2021/03/06 07:32:41;;;;;;;4.63;2.87;;;9.80;74.50;;;;;;5062239;28;20048;-50
2021/03/06 07:35:10;;;;;;;5.57;2.60;;;9.60;74.60;;;;;;5075858;28;20032;-48
2021/03/06 07:37:37;;;;;;;6.10;2.87;;;9.70;74.50;;;;;;5059111;28;22762;-52
2021/03/06 07:40:15;;;;;;;6.90;2.53;;;9.70;75.00;;;;;;5057696;28;20040;-48
2021/03/06 07:42:51;;;;;;;5.40;2.83;;;9.70;75.00;;;;;;5054259;28;20124;-47
2021/03/06 07:45:25;;;;;;;6.13;2.80;;;9.70;74.70;;;;;;5046829;28;20383;-49
2021/03/06 07:48:06;;;;;;;7.37;2.60;;;9.80;74.50;;;;;;5052623;28;20139;-47
2021/03/06 07:50:34;;;;;;;6.23;3.30;;;9.60;73.50;;;;;;5057060;28;20049;-47
2021/03/06 07:53:02;;;;;;;8.53;3.17;;;9.60;74.10;;;;;;5052475;28;20045;-48
2021/03/06 07:55:29;;;;;;;6.50;2.80;;;9.70;74.00;;;;;;5058272;28;20120;-49
2021/03/06 07:58:14;;;;;;;5.53;2.20;;;9.60;74.60;;;;;;5061149;28;20040;-48
2021/03/06 08:00:57;;;;;;;6.30;3.03;;;9.70;74.20;;;;;;5059960;28;20158;-51
2021/03/06 08:03:23;;;;;;;7.77;3.67;;;9.70;75.10;;;;;;5026743;28;20066;-49
2021/03/06 08:05:54;;;;;;;11.47;2.80;;;9.60;75.80;;;;;;5059027;28;20114;-54
2021/03/06 08:08:37;;;;;;;8.93;2.60;;;9.60;74.80;;;;;;5063433;28;20453;-49
2021/03/06 08:11:03;;;;;;;6.53;3.37;;;9.50;73.90;;;;;;5058464;28;20032;-53
2021/03/06 08:13:51;;;;;;;6.83;2.40;;;9.50;74.80;;;;;;5054441;28;20052;-52
2021/03/06 08:16:22;;;;;;;6.47;2.63;;;9.60;73.80;;;;;;5059517;28;20048;-54
2021/03/06 08:18:53;;;;;;;7.73;2.73;;;9.50;73.10;;;;;;5057563;28;20091;-50
2021/03/06 08:24:41;;;;;;;6.20;2.50;;;9.40;72.40;;;;;;5031310;28;20170;-50
2021/03/06 08:27:06;;;;;;;6.83;2.73;;;9.40;72.90;;;;;;5059662;28;20510;-47
2021/03/06 08:29:33;;;;;;;7.40;3.03;;;9.40;73.70;;;;;;5056952;28;20080;-49
2021/03/06 08:32:05;;;;;;;8.90;3.00;;;9.40;72.50;;;;;;5060287;28;20405;-48
2021/03/06 08:34:32;;;;;;;5.10;2.80;;;9.40;72.70;;;;;;5056834;28;20037;-47
2021/03/06 08:40:06;;;;;;;9.67;3.30;;;9.30;70.80;;;;;;5056638;28;20036;-48
2021/03/06 08:42:36;;;;;;;8.30;3.40;;;9.30;70.80;;;;;;5037567;28;21331;-48
2021/03/06 08:45:24;;;;;;;7.57;3.10;;;9.20;69.10;;;;;;5057411;28;20071;-49
2021/03/06 08:48:04;;;;;;;5.00;3.23;;;9.20;70.20;;;;;;5036349;28;20112;-51
2021/03/06 08:50:31;;;;;;;7.17;3.63;;;9.30;70.60;;;;;;5061036;28;20047;-53
2021/03/06 08:53:02;;;;;;;6.13;3.30;;;9.30;69.80;;;;;;5064712;28;20044;-51
2021/03/06 08:55:38;;;;;;;12.80;3.17;;;9.20;69.10;;;;;;5057018;28;20551;-49
2021/03/06 08:58:05;;;;;;;7.50;3.70;;;9.10;65.90;;;;;;5062721;28;20037;-52
2021/03/06 09:00:57;;;;;;;8.27;3.07;;;9.20;68.50;;;;;;5053167;28;20460;-48
2021/03/06 09:03:26;;;;;;;6.73;3.53;;;9.20;69.00;;;;;;5032054;28;20037;-47
2021/03/06 09:05:58;;;;;;;8.60;3.90;;;9.20;69.30;;;;;;5075248;28;20044;-49
2021/03/06 09:08:25;;;;;;;4.50;2.83;;;9.30;69.80;;;;;;5058004;28;20041;-49
2021/03/06 09:10:52;;;;;;;9.97;6.30;;;9.20;68.40;;;;;;5059106;28;20052;-50
2021/03/06 09:13:21;;;;;;;10.33;5.80;;;9.20;69.80;;;;;;5061168;28;20044;-50
2021/03/06 09:15:53;;;;;;;13.37;6.93;;;9.30;68.40;;;;;;5072521;28;20037;-49
2021/03/06 09:18:22;;;;;;;22.13;10.87;;;9.30;68.90;;;;;;5057502;28;20032;-52
2021/03/06 09:21:09;;;;;;;27.57;13.43;;;9.20;69.40;;;;;;5057632;28;20048;-48
2021/03/06 09:23:40;;;;;;;16.53;8.20;;;9.30;69.40;;;;;;5057946;28;20048;-48
2021/03/06 09:26:18;;;;;;;7.57;5.77;;;9.40;68.90;;;;;;5059610;28;20440;-51
2021/03/06 09:28:46;;;;;;;11.07;4.50;;;9.40;68.80;;;;;;5072094;28;20468;-47
2021/03/06 09:31:18;;;;;;;7.30;4.47;;;9.50;68.50;;;;;;5057797;28;20033;-48
2021/03/06 09:33:44;;;;;;;6.33;3.97;;;9.50;69.40;;;;;;5051708;28;20131;-51
2021/03/06 09:36:19;;;;;;;6.77;3.53;;;9.50;68.40;;;;;;5061692;28;20043;-47
2021/03/06 09:38:56;;;;;;;9.03;3.73;;;9.40;67.70;;;;;;5055626;28;20048;-50
2021/03/06 09:41:24;;;;;;;9.87;4.13;;;9.40;66.60;;;;;;5063803;28;20051;-52
2021/03/06 09:43:54;;;;;;;7.47;3.83;;;9.50;66.70;;;;;;5056455;28;20048;-50
2021/03/06 09:46:26;;;;;;;8.33;3.67;;;9.50;66.10;;;;;;5060719;28;20057;-48
2021/03/06 09:48:58;;;;;;;9.70;3.90;;;9.60;66.60;;;;;;5056412;28;20497;-48
2021/03/06 09:51:39;;;;;;;5.40;3.33;;;9.80;67.20;;;;;;5056753;28;20502;-48
2021/03/06 09:54:06;;;;;;;6.93;3.87;;;9.90;66.10;;;;;;5055952;28;20067;-51
2021/03/06 09:56:32;;;;;;;5.83;3.50;;;10.10;65.70;;;;;;5062617;28;20041;-49
2021/03/06 09:59:05;;;;;;;8.07;4.23;;;9.90;64.30;;;;;;5056391;28;20371;-50
2021/03/06 10:01:35;;;;;;;8.43;4.50;;;10.00;64.40;;;;;;5059803;28;20056;-48
2021/03/06 10:04:10;;;;;;;6.77;3.97;;;10.20;65.40;;;;;;5053991;28;20120;-49
2021/03/06 10:06:38;;;;;;;5.37;3.90;;;10.00;64.20;;;;;;5059009;28;20829;-48
2021/03/06 10:09:06;;;;;;;8.03;3.93;;;9.90;62.90;;;;;;5055835;28;20048;-51
2021/03/06 10:11:33;;;;;;;9.23;4.20;;;9.90;64.10;;;;;;5060693;28;20132;-48
2021/03/06 10:14:00;;;;;;;9.80;4.07;;;10.00;65.00;;;;;;5056509;28;20084;-49
2021/03/06 10:16:26;;;;;;;10.90;4.13;;;10.10;64.40;;;;;;5059734;28;20451;-52
2021/03/06 10:18:52;;;;;;;9.10;4.37;;;10.20;63.50;;;;;;5057067;28;20042;-52
2021/03/06 10:21:22;;;;;;;6.13;3.90;;;10.30;61.40;;;;;;5060125;28;20082;-54
2021/03/06 10:23:50;;;;;;;6.80;4.13;;;10.20;62.30;;;;;;5054588;28;20410;-50
2021/03/06 10:26:23;;;;;;;5.27;3.77;;;10.40;62.60;;;;;;5059691;28;20029;-48
2021/03/06 10:28:55;;;;;;;6.93;4.37;;;10.40;62.50;;;;;;5057516;28;20044;-50
2021/03/06 10:31:32;;;;;;;5.63;4.53;;;10.30;61.70;;;;;;5059170;28;20118;-50
2021/03/06 10:34:18;;;;;;;7.43;4.13;;;10.40;62.30;;;;;;5058043;28;20102;-50
2021/03/06 10:36:45;;;;;;;7.90;4.60;;;10.40;61.00;;;;;;5058900;28;20134;-51
2021/03/06 10:39:16;;;;;;;6.83;4.40;;;10.40;62.70;;;;;;5060847;28;20547;-48
2021/03/06 10:41:42;;;;;;;10.30;4.63;;;10.40;61.00;;;;;;5056669;28;20048;-51
2021/03/06 10:44:08;;;;;;;7.97;4.30;;;10.40;60.90;;;;;;5060090;28;20044;-48
2021/03/06 10:46:35;;;;;;;7.97;5.30;;;10.60;63.00;;;;;;5055870;28;20044;-51
2021/03/06 10:49:06;;;;;;;5.63;4.73;;;10.80;61.90;;;;;;5057469;28;20056;-49
2021/03/06 10:51:49;;;;;;;6.07;4.57;;;10.80;62.50;;;;;;5055114;28;20049;-51
2021/03/06 10:54:16;;;;;;;12.80;4.67;;;10.70;60.40;;;;;;5057208;28;20036;-51
2021/03/06 10:56:42;;;;;;;8.85;3.92;;;10.80;61.40;;;;;;5052243;28;20051;-50
2021/03/06 10:59:09;;;;;;;9.20;4.50;;;10.80;60.60;;;;;;5054613;28;20044;-52
2021/03/06 11:01:46;;;;;;;9.88;4.70;;;10.90;61.70;;;;;;5053615;28;20048;-57
2021/03/06 11:04:31;;;;;;;7.40;4.63;;;11.00;58.70;;;;;;5055129;28;20171;-48
2021/03/06 11:07:02;;;;;;;8.57;4.43;;;11.00;58.20;;;;;;5029868;28;20036;-53
2021/03/06 11:09:32;;;;;;;9.03;4.67;;;10.80;58.60;;;;;;5060605;28;20056;-53
2021/03/06 11:12:21;;;;;;;9.30;4.77;;;10.80;58.00;;;;;;5054123;28;20120;-51
2021/03/06 11:15:12;;;;;;;6.87;4.60;;;11.00;57.20;;;;;;5057834;28;20044;-52
2021/03/06 11:17:43;;;;;;;7.87;5.07;;;10.90;57.60;;;;;;5051686;28;20097;-50
2021/03/06 11:20:12;;;;;;;6.90;4.33;;;11.10;57.60;;;;;;5058587;28;20045;-51
2021/03/06 11:22:38;;;;;;;5.87;4.73;;;11.00;57.20;;;;;;5053943;28;20486;-52
2021/03/06 11:25:06;;;;;;;6.80;4.43;;;11.10;56.80;;;;;;5057324;28;22480;-49
2021/03/06 11:27:50;;;;;;;8.93;5.17;;;10.90;56.90;;;;;;5054574;28;20040;-50
2021/03/06 11:30:22;;;;;;;6.93;4.45;;;11.00;57.10;;;;;;5057533;28;20056;-52
2021/03/06 11:32:48;;;;;;;7.55;4.63;;;10.80;56.90;;;;;;5053624;28;20060;-50
2021/03/06 11:35:14;;;;;;;8.53;4.67;;;10.90;56.70;;;;;;5059350;28;20112;-50
2021/03/06 11:37:40;;;;;;;7.30;4.57;;;10.80;57.00;;;;;;5054894;28;20090;-49
2021/03/06 11:40:07;;;;;;;6.80;4.70;;;10.90;56.70;;;;;;5056732;28;20036;-53
2021/03/06 11:42:33;;;;;;;6.30;5.20;;;10.90;55.20;;;;;;5054244;28;20039;-49
2021/03/06 11:44:59;;;;;;;7.47;5.40;;;11.00;55.30;;;;;;5073096;28;20506;-49
2021/03/06 11:47:24;;;;;;;7.55;4.90;;;11.10;56.30;;;;;;5055734;28;20127;-49
2021/03/06 11:49:50;;;;;;;6.67;4.67;;;11.20;56.80;;;;;;5057832;28;20041;-49
2021/03/06 11:52:15;;;;;;;6.60;4.80;;;11.20;55.70;;;;;;5054048;28;20049;-50
2021/03/06 11:54:41;;;;;;;6.00;4.23;;;11.20;56.40;;;;;;5048595;28;20048;-49
2021/03/06 11:57:07;;;;;;;10.10;5.20;;;11.20;55.00;;;;;;5073718;28;20059;-50
2021/03/06 11:59:33;;;;;;;9.40;5.80;;;11.20;55.40;;;;;;5054854;28;20135;-50
2021/03/06 12:01:58;;;;;;;13.30;4.90;;;11.30;55.20;;;;;;5061192;28;20086;-50
2021/03/06 12:04:24;;;;;;;7.50;4.25;;;11.20;53.90;;;;;;5057067;28;20047;-49
2021/03/06 12:06:49;;;;;;;6.37;4.57;;;11.20;53.70;;;;;;5060778;28;20494;-51
2021/03/06 12:09:15;;;;;;;4.35;3.95;;;11.30;54.40;;;;;;5058651;28;20450;-52
2021/03/06 12:11:41;;;;;;;7.15;4.40;;;11.40;53.10;;;;;;5062722;28;20052;-54
2021/03/06 12:14:06;;;;;;;9.90;6.00;;;11.40;53.60;;;;;;5057604;28;20051;-53
2021/03/06 12:16:37;;;;;;;7.70;5.15;;;11.40;54.40;;;;;;5062118;28;20368;-53
2021/03/06 12:19:03;;;;;;;6.40;4.20;;;11.50;54.30;;;;;;5057238;28;20588;-52
2021/03/06 12:21:29;;;;;;;6.75;4.40;;;11.50;53.20;;;;;;5062762;28;20059;-50
2021/03/06 12:23:55;;;;;;;8.85;5.60;;;11.60;53.70;;;;;;5057629;28;20041;-54
2021/03/06 12:26:20;;;;;;;7.50;4.70;;;11.70;53.30;;;;;;5062455;28;20044;-52
2021/03/06 12:28:46;;;;;;;6.25;4.70;;;11.90;53.30;;;;;;5058240;28;20052;-50
2021/03/06 12:31:12;;;;;;;6.85;4.60;;;11.90;52.20;;;;;;5081310;28;20070;-51
2021/03/06 12:33:37;;;;;;;10.57;4.70;;;11.90;50.50;;;;;;5061538;28;20048;-50
2021/03/06 12:36:09;;;;;;;8.55;5.03;;;11.90;51.70;;;;;;5058427;28;20143;-53
2021/03/06 12:38:35;;;;;;;8.32;5.57;;;11.90;52.30;;;;;;5062254;28;20076;-51
2021/03/06 12:41:01;;;;;;;8.07;4.63;;;11.90;51.80;;;;;;5057626;28;20043;-50
2021/03/06 12:43:27;;;;;;;10.07;5.30;;;12.10;53.20;;;;;;5061863;28;20040;-53
2021/03/06 12:45:53;;;;;;;5.85;4.85;;;12.20;52.00;;;;;;5070749;28;20984;-50
2021/03/06 12:48:19;;;;;;;5.82;4.50;;;12.00;51.70;;;;;;5059275;28;20398;-52
2021/03/06 12:50:44;;;;;;;4.72;4.07;;;11.70;51.40;;;;;;5059207;28;20391;-53
2021/03/06 12:53:10;;;;;;;5.40;4.80;;;11.70;51.40;;;;;;5061637;28;20041;-49
2021/03/06 12:55:35;;;;;;;6.55;5.03;;;11.50;51.00;;;;;;5056536;28;20036;-49
2021/03/06 12:58:01;;;;;;;6.15;4.70;;;11.50;52.20;;;;;;5060666;28;20037;-50
2021/03/06 13:00:27;;;;;;;8.83;5.13;;;11.60;52.00;;;;;;5057912;28;20132;-52
2021/03/06 13:02:52;;;;;;;8.23;6.15;;;11.50;51.20;;;;;;5063941;28;20106;-47
2021/03/06 13:05:18;;;;;;;9.23;4.95;;;11.60;51.40;;;;;;5067975;28;20611;-50
2021/03/06 13:07:43;;;;;;;10.57;5.78;;;11.70;52.30;;;;;;5066662;28;20267;-48
2021/03/06 13:10:09;;;;;;;10.57;5.78;;;11.90;51.40;;;;;;5062969;28;20433;-52
2021/03/06 13:12:35;;;;;;;8.18;5.38;;;12.00;51.10;;;;;;5053847;28;20037;-48
2021/03/06 13:15:01;;;;;;;9.02;5.10;;;12.00;50.40;;;;;;5051832;28;20025;-51
2021/03/06 13:17:26;;;;;;;11.52;6.60;;;12.00;50.80;;;;;;5058671;28;20043;-48
2021/03/06 13:19:52;;;;;;;9.52;5.13;;;12.10;51.60;;;;;;5064448;28;20032;-48
2021/03/06 13:22:17;;;;;;;8.53;5.37;;;12.10;49.90;;;;;;5055113;28;20095;-48
2021/03/06 13:31:26;;;;;;;9.57;5.95;;;12.00;49.50;;;;;;5008540;28;20102;-53